createdAt,value
2022-08-20T00:00:50.236Z,26.81
2022-08-20T00:03:50.266Z,26.79
2022-08-20T00:06:45.371Z,26.76
2022-08-20T00:09:37.024Z,26.73
2022-08-20T00:12:28.587Z,26.70
2022-08-20T00:15:22.949Z,26.67
2022-08-20T00:18:14.905Z,26.66
2022-08-20T00:21:08.764Z,26.65
2022-08-20T00:24:00.591Z,26.64
2022-08-20T00:26:52.612Z,26.64
2022-08-20T00:29:43.724Z,26.64
2022-08-20T00:32:43.374Z,26.63
2022-08-20T00:35:37.826Z,26.63
2022-08-20T00:38:30.102Z,26.62
2022-08-20T00:41:24.239Z,26.62
2022-08-20T00:44:17.343Z,26.60
2022-08-20T00:47:09.333Z,26.59
2022-08-20T00:50:00.025Z,26.57
2022-08-20T00:52:54.435Z,26.55
2022-08-20T00:55:45.013Z,26.53
2022-08-20T00:58:37.509Z,26.52
2022-08-20T01:01:48.174Z,26.51
2022-08-20T01:04:48.496Z,26.49
2022-08-20T01:07:40.666Z,26.47
2022-08-20T01:10:35.346Z,26.46
2022-08-20T01:13:27.298Z,26.44
2022-08-20T01:16:29.598Z,26.43
2022-08-20T01:19:29.468Z,26.40
2022-08-20T01:22:58.367Z,26.36
2022-08-20T01:25:53.074Z,26.33
2022-08-20T01:28:49.298Z,26.30
2022-08-20T01:31:42.336Z,26.26
2022-08-20T01:34:33.551Z,26.24
2022-08-20T01:37:25.488Z,26.21
2022-08-20T01:40:35.109Z,26.19
2022-08-20T01:43:26.972Z,26.18
2022-08-20T01:46:18.271Z,26.14
2022-08-20T01:49:23.137Z,26.11
2022-08-20T01:52:32.819Z,26.10
2022-08-20T01:55:23.079Z,26.09
2022-08-20T01:58:16.712Z,26.08
2022-08-20T02:01:09.517Z,26.09
2022-08-20T02:04:03.267Z,26.09
2022-08-20T02:06:57.848Z,26.09
2022-08-20T02:09:49.652Z,26.07
2022-08-20T02:12:40.244Z,26.05
2022-08-20T02:15:37.336Z,26.04
2022-08-20T02:18:29.255Z,26.01
2022-08-20T02:21:19.861Z,26.00
2022-08-20T02:24:11.116Z,25.98
2022-08-20T02:27:02.878Z,25.97
2022-08-20T02:29:54.491Z,25.95
2022-08-20T02:32:45.519Z,25.93
2022-08-20T02:35:35.642Z,25.90
2022-08-20T02:38:26.775Z,25.87
2022-08-20T02:41:18.024Z,25.80
2022-08-20T02:44:09.800Z,25.76
2022-08-20T02:47:03.139Z,25.74
2022-08-20T02:49:59.781Z,25.73
2022-08-20T02:52:52.360Z,25.71
2022-08-20T02:55:43.270Z,25.69
2022-08-20T02:58:35.515Z,25.68
2022-08-20T03:01:28.910Z,25.68
2022-08-20T03:04:20.120Z,25.68
2022-08-20T03:07:15.399Z,25.68
2022-08-20T03:10:06.254Z,25.67
2022-08-20T03:12:57.481Z,25.68
2022-08-20T03:15:57.923Z,25.68
2022-08-20T03:18:52.136Z,25.68
2022-08-20T03:21:43.659Z,25.68
2022-08-20T03:24:36.971Z,25.68
2022-08-20T03:27:29.989Z,25.67
2022-08-20T03:30:29.399Z,25.66
2022-08-20T03:33:21.735Z,25.65
2022-08-20T03:36:12.691Z,25.64
2022-08-20T03:39:13.456Z,25.62
2022-08-20T03:42:03.947Z,25.61
2022-08-20T03:44:58.921Z,25.59
2022-08-20T03:47:51.884Z,25.58
2022-08-20T03:50:44.396Z,25.59
2022-08-20T03:53:35.981Z,25.59
2022-08-20T03:56:27.509Z,25.60
2022-08-20T03:59:18.162Z,25.60
2022-08-20T04:02:11.622Z,25.61
2022-08-20T04:05:02.272Z,25.62
2022-08-20T04:07:52.524Z,25.62
2022-08-20T04:10:45.634Z,25.61
2022-08-20T04:13:38.994Z,25.61
2022-08-20T04:16:33.473Z,25.58
2022-08-20T04:19:23.703Z,25.56
2022-08-20T04:22:15.190Z,25.55
2022-08-20T04:25:06.368Z,25.54
2022-08-20T04:27:58.794Z,25.52
2022-08-20T04:30:51.985Z,25.52
2022-08-20T04:33:44.157Z,25.52
2022-08-20T04:36:35.234Z,25.51
2022-08-20T04:39:25.732Z,25.51
2022-08-20T04:42:15.755Z,25.50
2022-08-20T04:45:08.677Z,25.50
2022-08-20T04:48:00.094Z,25.49
2022-08-20T04:50:52.609Z,25.49
2022-08-20T04:53:43.484Z,25.48
2022-08-20T04:56:43.169Z,25.48
2022-08-20T04:59:33.035Z,25.48
2022-08-20T05:02:24.893Z,25.50
2022-08-20T05:05:17.782Z,25.51
2022-08-20T05:08:18.769Z,25.51
2022-08-20T05:11:34.052Z,25.49
2022-08-20T05:14:28.026Z,25.49
2022-08-20T05:17:19.701Z,25.50
2022-08-20T05:20:13.899Z,25.52
2022-08-20T05:23:04.424Z,25.55
2022-08-20T05:25:58.286Z,25.58
2022-08-20T05:28:57.587Z,25.61
2022-08-20T05:31:49.118Z,25.64
2022-08-20T05:34:39.044Z,25.67
2022-08-20T05:37:30.122Z,25.71
2022-08-20T05:40:23.884Z,25.75
2022-08-20T05:43:14.177Z,25.81
2022-08-20T05:46:05.591Z,25.87
2022-08-20T05:48:59.471Z,25.92
2022-08-20T05:51:51.372Z,25.98
2022-08-20T05:54:42.191Z,26.04
2022-08-20T05:57:32.499Z,26.11
2022-08-20T06:00:22.351Z,26.18
2022-08-20T06:03:30.129Z,26.24
2022-08-20T06:06:45.689Z,26.32
2022-08-20T06:09:32.769Z,26.42
2022-08-20T06:12:23.917Z,26.61
2022-08-20T06:15:15.237Z,26.84
2022-08-20T06:18:27.808Z,27.01
2022-08-20T06:21:24.679Z,27.14
2022-08-20T06:24:15.155Z,27.27
2022-08-20T06:27:07.455Z,27.34
2022-08-20T06:29:58.993Z,27.42
2022-08-20T06:32:51.374Z,27.49
2022-08-20T06:35:46.187Z,27.53
2022-08-20T06:38:38.616Z,27.56
2022-08-20T06:41:36.020Z,27.57
2022-08-20T06:44:28.830Z,27.59
2022-08-20T06:47:21.477Z,27.59
2022-08-20T06:50:14.656Z,27.59
2022-08-20T06:53:07.320Z,27.62
2022-08-20T06:55:59.651Z,27.66
2022-08-20T06:58:49.759Z,27.68
2022-08-20T07:01:39.582Z,27.72
2022-08-20T07:04:29.816Z,27.80
2022-08-20T07:07:20.966Z,27.86
2022-08-20T07:10:14.746Z,27.88
2022-08-20T07:13:06.508Z,27.88
2022-08-20T07:15:56.582Z,27.86
2022-08-20T07:18:48.142Z,27.69
2022-08-20T07:21:39.219Z,27.58
2022-08-20T07:24:33.324Z,27.52
2022-08-20T07:27:25.584Z,27.47
2022-08-20T07:30:55.801Z,27.51
2022-08-20T07:33:47.462Z,27.59
2022-08-20T07:36:41.502Z,27.64
2022-08-20T07:39:32.452Z,27.71
2022-08-20T07:42:23.019Z,27.81
2022-08-20T07:45:18.832Z,27.90
2022-08-20T07:48:27.896Z,27.93
2022-08-20T07:51:25.092Z,27.89
2022-08-20T07:54:15.165Z,27.83
2022-08-20T07:57:05.679Z,27.87
2022-08-20T08:00:00.397Z,27.87
2022-08-20T08:02:51.047Z,27.84
2022-08-20T08:05:46.774Z,27.89
2022-08-20T08:08:37.589Z,28.02
2022-08-20T08:11:29.871Z,28.06
2022-08-20T08:14:23.571Z,28.06
2022-08-20T08:17:15.621Z,28.12
2022-08-20T08:20:07.805Z,28.20
2022-08-20T08:23:00.797Z,28.31
2022-08-20T08:25:52.542Z,28.42
2022-08-20T08:28:47.118Z,28.51
2022-08-20T08:31:38.261Z,28.59
2022-08-20T08:34:32.560Z,28.69
2022-08-20T08:37:30.609Z,28.75
2022-08-20T08:40:21.442Z,28.78
2022-08-20T08:43:17.321Z,28.83
2022-08-20T08:46:14.433Z,28.93
2022-08-20T08:49:04.414Z,29.01
2022-08-20T08:52:00.462Z,29.08
2022-08-20T08:54:53.962Z,29.16
2022-08-20T08:57:43.781Z,29.23
2022-08-20T09:00:33.688Z,29.31
2022-08-20T09:03:39.974Z,29.39
2022-08-20T09:06:30.815Z,29.46
2022-08-20T09:09:26.360Z,29.52
2022-08-20T09:12:20.140Z,29.57
2022-08-20T09:15:11.085Z,29.58
2022-08-20T09:18:01.730Z,29.54
2022-08-20T09:20:52.929Z,29.52
2022-08-20T09:23:44.065Z,29.49
2022-08-20T09:26:39.159Z,29.46
2022-08-20T09:29:29.711Z,29.42
2022-08-20T09:32:23.652Z,29.38
2022-08-20T09:35:14.455Z,29.33
2022-08-20T09:38:04.138Z,29.34
2022-08-20T09:40:54.329Z,29.38
2022-08-20T09:43:44.560Z,29.46
2022-08-20T09:46:34.704Z,29.46
2022-08-20T09:49:25.131Z,29.42
2022-08-20T09:52:22.759Z,29.40
2022-08-20T09:55:21.465Z,29.41
2022-08-20T09:58:17.550Z,29.46
2022-08-20T10:01:13.862Z,29.60
2022-08-20T10:04:05.031Z,29.78
2022-08-20T10:06:56.101Z,29.96
2022-08-20T10:09:48.752Z,30.10
2022-08-20T10:12:41.642Z,30.25
2022-08-20T10:15:32.901Z,30.36
2022-08-20T10:18:22.784Z,30.44
2022-08-20T10:21:14.068Z,30.40
2022-08-20T10:24:04.201Z,30.26
2022-08-20T10:26:59.059Z,30.18
2022-08-20T10:29:49.544Z,30.28
2022-08-20T10:32:39.611Z,30.39
2022-08-20T10:35:30.155Z,30.52
2022-08-20T10:38:21.372Z,30.66
2022-08-20T10:41:11.994Z,30.80
2022-08-20T10:44:02.334Z,30.93
2022-08-20T10:46:56.985Z,31.06
2022-08-20T10:49:47.486Z,31.10
2022-08-20T10:52:38.110Z,30.96
2022-08-20T10:55:29.764Z,30.78
2022-08-20T10:58:20.183Z,30.62
2022-08-20T11:01:31.469Z,30.46
2022-08-20T11:04:25.210Z,30.39
2022-08-20T11:07:21.518Z,30.27
2022-08-20T11:10:34.537Z,30.20
2022-08-20T11:13:25.205Z,30.22
2022-08-20T11:16:15.616Z,30.29
2022-08-20T11:19:06.332Z,30.34
2022-08-20T11:21:59.688Z,30.39
2022-08-20T11:24:50.334Z,30.45
2022-08-20T11:27:42.799Z,30.50
2022-08-20T11:30:35.897Z,30.53
2022-08-20T11:33:26.661Z,30.61
2022-08-20T11:36:16.779Z,30.67
2022-08-20T11:39:08.110Z,30.72
2022-08-20T11:41:58.203Z,30.71
2022-08-20T11:44:48.559Z,30.71
2022-08-20T11:47:39.130Z,30.66
2022-08-20T11:50:30.336Z,30.57
2022-08-20T11:53:20.577Z,30.44
2022-08-20T11:56:16.549Z,30.26
2022-08-20T11:59:06.748Z,30.15
2022-08-20T12:02:08.965Z,30.04
2022-08-20T12:05:01.927Z,29.94
2022-08-20T12:07:52.888Z,29.85
2022-08-20T12:10:45.580Z,29.78
2022-08-20T12:13:47.826Z,29.77
2022-08-20T12:16:40.012Z,29.78
2022-08-20T12:19:30.819Z,29.76
2022-08-20T12:22:25.251Z,29.69
2022-08-20T12:25:16.158Z,29.53
2022-08-20T12:28:12.654Z,29.39
2022-08-20T12:31:03.625Z,29.29
2022-08-20T12:33:54.102Z,29.16
2022-08-20T12:36:44.987Z,29.04
2022-08-20T12:39:36.356Z,29.01
2022-08-20T12:42:27.258Z,29.01
2022-08-20T12:45:18.179Z,28.94
2022-08-20T12:48:13.487Z,28.82
2022-08-20T12:51:03.605Z,28.83
2022-08-20T12:53:54.556Z,28.93
2022-08-20T12:56:48.491Z,29.01
2022-08-20T12:59:38.669Z,28.94
2022-08-20T13:02:29.645Z,28.95
2022-08-20T13:05:20.288Z,28.99
2022-08-20T13:08:11.986Z,29.03
2022-08-20T13:11:03.169Z,29.09
2022-08-20T13:13:56.244Z,29.09
2022-08-20T13:16:47.214Z,29.13
2022-08-20T13:19:46.057Z,29.16
2022-08-20T13:22:36.043Z,29.20
2022-08-20T13:25:26.446Z,29.21
2022-08-20T13:28:17.174Z,29.19
2022-08-20T13:31:12.439Z,29.12
2022-08-20T13:34:03.655Z,29.10
2022-08-20T13:36:56.187Z,29.13
2022-08-20T13:39:47.071Z,29.15
2022-08-20T13:42:37.411Z,29.19
2022-08-20T13:45:28.560Z,29.24
2022-08-20T13:48:18.877Z,29.27
2022-08-20T13:51:09.578Z,29.32
2022-08-20T13:53:59.609Z,29.30
2022-08-20T13:56:50.114Z,29.28
2022-08-20T13:59:42.751Z,29.30
2022-08-20T14:02:32.877Z,29.34
2022-08-20T14:05:23.034Z,29.37
2022-08-20T14:08:15.033Z,29.39
2022-08-20T14:11:05.630Z,29.34
2022-08-20T14:13:58.201Z,29.31
2022-08-20T14:16:48.362Z,29.31
2022-08-20T14:19:40.376Z,29.20
2022-08-20T14:22:30.337Z,29.06
2022-08-20T14:25:23.374Z,28.97
2022-08-20T14:28:15.065Z,28.95
2022-08-20T14:31:08.272Z,28.95
2022-08-20T14:33:58.313Z,28.95
2022-08-20T14:36:51.162Z,28.94
2022-08-20T14:39:45.014Z,28.94
2022-08-20T14:42:35.592Z,28.96
2022-08-20T14:45:25.883Z,28.95
2022-08-20T14:48:16.612Z,28.94
2022-08-20T14:51:09.839Z,28.96
2022-08-20T14:54:00.115Z,29.00
2022-08-20T14:56:52.046Z,29.03
2022-08-20T14:59:42.600Z,29.00
2022-08-20T15:02:34.200Z,29.01
2022-08-20T15:05:24.602Z,29.00
2022-08-20T15:08:15.083Z,29.01
2022-08-20T15:11:07.649Z,29.02
2022-08-20T15:13:58.054Z,28.96
2022-08-20T15:16:48.630Z,28.94
2022-08-20T15:19:39.027Z,28.96
2022-08-20T15:22:29.235Z,28.98
2022-08-20T15:25:23.078Z,29.00
2022-08-20T15:28:12.916Z,28.98
2022-08-20T15:31:02.692Z,28.98
2022-08-20T15:33:54.988Z,28.94
2022-08-20T15:36:45.294Z,28.89
2022-08-20T15:39:35.529Z,28.93
2022-08-20T15:42:25.988Z,28.92
2022-08-20T15:45:21.834Z,28.94
2022-08-20T15:48:16.733Z,28.98
2022-08-20T15:51:28.760Z,28.95
2022-08-20T15:54:24.271Z,28.90
2022-08-20T15:57:27.529Z,28.90
2022-08-20T16:00:20.093Z,28.97
2022-08-20T16:03:33.425Z,28.90
2022-08-20T16:06:29.279Z,28.86
2022-08-20T16:09:39.503Z,28.84
2022-08-20T16:12:38.163Z,28.80
2022-08-20T16:15:31.341Z,28.77
2022-08-20T16:18:25.771Z,28.83
2022-08-20T16:21:20.387Z,28.84
2022-08-20T16:24:13.921Z,28.84
2022-08-20T16:27:16.034Z,28.86
2022-08-20T16:30:11.922Z,28.86
2022-08-20T16:33:07.486Z,28.86
2022-08-20T16:36:02.950Z,28.82
2022-08-20T16:38:59.646Z,28.77
2022-08-20T16:41:53.141Z,28.74
2022-08-20T16:44:48.666Z,28.74
2022-08-20T16:47:41.409Z,28.72
2022-08-20T16:50:35.469Z,28.74
2022-08-20T16:53:27.809Z,28.76
2022-08-20T16:56:31.537Z,28.75
2022-08-20T16:59:26.591Z,28.77
2022-08-20T17:02:22.578Z,28.78
2022-08-20T17:05:13.157Z,28.85
2022-08-20T17:08:07.170Z,28.91
2022-08-20T17:11:01.825Z,28.96
2022-08-20T17:14:02.594Z,28.97
2022-08-20T17:16:55.377Z,29.00
2022-08-20T17:19:55.974Z,29.06
2022-08-20T17:22:50.630Z,29.12
2022-08-20T17:25:41.766Z,29.07
2022-08-20T17:28:35.462Z,29.04
2022-08-20T17:31:38.797Z,29.05
2022-08-20T17:34:32.729Z,29.08
2022-08-20T17:37:26.269Z,29.11
2022-08-20T17:40:19.755Z,29.01
2022-08-20T17:43:11.475Z,29.00
2022-08-20T17:46:04.398Z,29.02
2022-08-20T17:48:58.544Z,29.07
2022-08-20T17:51:51.229Z,29.10
2022-08-20T17:54:45.432Z,29.09
2022-08-20T17:57:40.918Z,29.09
2022-08-20T18:00:31.620Z,29.14
2022-08-20T18:03:25.789Z,29.20
2022-08-20T18:06:30.336Z,29.23
2022-08-20T18:09:29.603Z,29.25
2022-08-20T18:12:34.298Z,29.26
2022-08-20T18:15:28.599Z,29.26
2022-08-20T18:18:30.301Z,29.26
2022-08-20T18:21:43.334Z,29.23
2022-08-20T18:24:42.507Z,29.18
2022-08-20T18:27:39.556Z,29.15
2022-08-20T18:30:29.413Z,29.14
2022-08-20T18:33:29.902Z,29.12
2022-08-20T18:36:28.185Z,29.12
2022-08-20T18:39:28.864Z,29.12
2022-08-20T18:42:32.085Z,29.10
2022-08-20T18:45:33.853Z,29.05
2022-08-20T18:48:26.399Z,28.97
2022-08-20T18:51:16.437Z,28.91
2022-08-20T18:54:07.486Z,28.85
2022-08-20T18:57:08.621Z,28.80
2022-08-20T19:00:05.366Z,28.75
2022-08-20T19:03:03.683Z,28.71
2022-08-20T19:06:18.207Z,28.70
2022-08-20T19:09:19.813Z,28.67
2022-08-20T19:12:32.755Z,28.64
2022-08-20T19:15:25.172Z,28.64
2022-08-20T19:18:22.929Z,28.62
2022-08-20T19:21:16.305Z,28.63
2022-08-20T19:24:09.648Z,28.64
2022-08-20T19:27:02.757Z,28.63
2022-08-20T19:29:56.718Z,28.60
2022-08-20T19:32:54.443Z,28.61
2022-08-20T19:35:45.633Z,28.64
2022-08-20T19:38:36.044Z,28.64
2022-08-20T19:41:31.707Z,28.64
2022-08-20T19:44:33.489Z,28.64
2022-08-20T19:47:32.270Z,28.63
2022-08-20T19:50:30.929Z,28.61
2022-08-20T19:53:30.534Z,28.58
2022-08-20T19:56:24.372Z,28.55
2022-08-20T19:59:22.274Z,28.56
2022-08-20T20:02:20.621Z,28.59
2022-08-20T20:05:13.229Z,28.62
2022-08-20T20:08:06.343Z,28.64
2022-08-20T20:11:00.510Z,28.67
2022-08-20T20:13:51.567Z,28.68
2022-08-20T20:16:43.526Z,28.70
2022-08-20T20:19:47.864Z,28.69
2022-08-20T20:22:52.190Z,28.70
2022-08-20T20:25:45.519Z,28.74
2022-08-20T20:28:46.895Z,28.76
2022-08-20T20:31:52.456Z,28.76
2022-08-20T20:34:55.626Z,28.77
2022-08-20T20:37:57.678Z,28.77
2022-08-20T20:41:00.788Z,28.77
2022-08-20T20:44:02.664Z,28.77
2022-08-20T20:47:00.416Z,28.75
2022-08-20T20:49:57.319Z,28.72
2022-08-20T20:52:56.177Z,28.71
2022-08-20T20:56:00.290Z,28.68
2022-08-20T20:58:54.418Z,28.61
2022-08-20T21:01:49.921Z,28.61
2022-08-20T21:04:42.800Z,28.66
2022-08-20T21:07:33.901Z,28.71
2022-08-20T21:10:30.395Z,28.72
2022-08-20T21:13:22.506Z,28.72
2022-08-20T21:16:13.075Z,28.68
2022-08-20T21:19:05.973Z,28.66
2022-08-20T21:21:57.057Z,28.67
2022-08-20T21:24:48.674Z,28.65
2022-08-20T21:27:53.755Z,28.66
2022-08-20T21:30:46.143Z,28.64
2022-08-20T21:33:39.353Z,28.62
2022-08-20T21:36:29.692Z,28.62
2022-08-20T21:39:20.053Z,28.60
2022-08-20T21:42:22.975Z,28.55
2022-08-20T21:45:20.578Z,28.47
2022-08-20T21:48:11.740Z,28.42
2022-08-20T21:51:02.500Z,28.38
2022-08-20T21:53:52.719Z,28.37
2022-08-20T21:56:44.313Z,28.37
2022-08-20T21:59:37.393Z,28.36
2022-08-20T22:02:28.602Z,28.37
2022-08-20T22:05:19.342Z,28.32
2022-08-20T22:08:09.266Z,28.22
2022-08-20T22:11:00.542Z,28.10
2022-08-20T22:13:50.728Z,27.99
2022-08-20T22:16:42.923Z,27.89
2022-08-20T22:19:35.970Z,27.82
2022-08-20T22:22:26.268Z,27.75
2022-08-20T22:25:16.363Z,27.69
2022-08-20T22:28:06.275Z,27.63
2022-08-20T22:30:56.279Z,27.59
2022-08-20T22:33:46.139Z,27.54
2022-08-20T22:36:36.378Z,27.49
2022-08-20T22:39:26.893Z,27.45
2022-08-20T22:42:17.013Z,27.42
2022-08-20T22:45:11.536Z,27.39
2022-08-20T22:48:07.792Z,27.36
2022-08-20T22:50:59.119Z,27.33
2022-08-20T22:53:50.303Z,27.29
2022-08-20T22:56:42.848Z,27.27
2022-08-20T22:59:34.433Z,27.25
2022-08-20T23:02:36.373Z,27.23
2022-08-20T23:05:28.706Z,27.21
2022-08-20T23:08:19.234Z,27.19
2022-08-20T23:11:09.635Z,27.16
2022-08-20T23:13:59.880Z,27.13
2022-08-20T23:16:58.136Z,27.11
2022-08-20T23:19:51.283Z,27.07
2022-08-20T23:22:42.274Z,27.04
2022-08-20T23:25:33.518Z,27.02
2022-08-20T23:28:26.518Z,27.00
2022-08-20T23:31:16.946Z,26.98
2022-08-20T23:34:08.963Z,26.96
2022-08-20T23:37:01.345Z,26.94
2022-08-20T23:39:52.167Z,26.91
2022-08-20T23:42:42.733Z,26.88
2022-08-20T23:45:33.678Z,26.86
2022-08-20T23:48:24.916Z,26.85
2022-08-20T23:51:15.815Z,26.83
2022-08-20T23:54:06.887Z,26.83
2022-08-20T23:56:57.645Z,26.82
2022-08-20T23:59:48.765Z,26.80
